Time;durP1;ratioP1;P1;durP2;ratioP2;P2;SDS_P1;SDS_P2;PMS_P1;PMS_P2;Temp;Humidity;BMP_temperature;BMP_pressure;BME280_temperature;BME280_humidity;BME280_pressure;Samples;Min_cycle;Max_cycle;Signal;HPM_P1;HPM_P2
2021/08/23 00:00:31;;;;;;;3.9;3.5;;;;;;;15.14;100;95641.22;;;;
2021/08/23 00:01:32;;;;;;;3.9;3.5;;;;;;;15.14;100;95641.22;;;;
2021/08/23 00:02:33;;;;;;;3.9;3.5;;;;;;;15.14;100;95641.22;;;;
2021/08/23 00:03:34;;;;;;;3.9;3.5;;;;;;;15.14;100;95641.22;;;;
2021/08/23 00:04:34;;;;;;;3.9;3.5;;;;;;;15.14;100;95641.22;;;;
2021/08/23 00:05:35;;;;;;;3.9;3.5;;;;;;;15.14;100;95641.22;;;;
2021/08/23 00:06:35;;;;;;;3.9;3.5;;;;;;;15.14;100;95641.22;;;;
2021/08/23 00:07:36;;;;;;;3.9;3.5;;;;;;;15.14;100;95641.22;;;;
2021/08/23 00:08:36;;;;;;;5.149999;3.85;;;;;;;14.79;100;95632.78;;;;
2021/08/23 00:09:37;;;;;;;5.149999;3.85;;;;;;;14.79;100;95632.78;;;;
2021/08/23 00:10:38;;;;;;;5.149999;3.85;;;;;;;14.79;100;95632.78;;;;
2021/08/23 00:11:38;;;;;;;5.149999;3.85;;;;;;;14.79;100;95632.78;;;;
2021/08/23 00:12:39;;;;;;;5.149999;3.85;;;;;;;14.79;100;95632.78;;;;
2021/08/23 00:13:39;;;;;;;5.149999;3.85;;;;;;;14.79;100;95632.78;;;;
2021/08/23 00:14:40;;;;;;;5.149999;3.85;;;;;;;14.79;100;95632.78;;;;
2021/08/23 00:15:41;;;;;;;5.149999;3.85;;;;;;;14.79;100;95632.78;;;;
2021/08/23 00:16:41;;;;;;;5.149999;3.85;;;;;;;14.79;100;95632.78;;;;
2021/08/23 00:17:42;;;;;;;5.149999;3.85;;;;;;;14.79;100;95632.78;;;;
2021/08/23 00:18:44;;;;;;;5.250001;3.85;;;;;;;14.51;100;95636.49;;;;
2021/08/23 00:19:45;;;;;;;5.250001;3.85;;;;;;;14.51;100;95636.49;;;;
2021/08/23 00:20:51;;;;;;;5.250001;3.85;;;;;;;14.51;100;95636.49;;;;
2021/08/23 00:22:00;;;;;;;5.250001;3.85;;;;;;;14.51;100;95636.49;;;;
2021/08/23 00:23:02;;;;;;;5.250001;3.85;;;;;;;14.51;100;95636.49;;;;
2021/08/23 00:24:06;;;;;;;5.250001;3.85;;;;;;;14.51;100;95636.49;;;;
2021/08/23 00:25:06;;;;;;;5.250001;3.85;;;;;;;14.51;100;95636.49;;;;
2021/08/23 00:26:07;;;;;;;5.250001;3.85;;;;;;;14.51;100;95636.49;;;;
2021/08/23 00:27:08;;;;;;;5.250001;3.85;;;;;;;14.51;100;95636.49;;;;
2021/08/23 00:28:08;;;;;;;5.250001;3.85;;;;;;;14.51;100;95636.49;;;;
2021/08/23 00:29:09;;;;;;;5.15;4.05;;;;;;;14.2;100;95633.01;;;;
2021/08/23 00:30:10;;;;;;;5.15;4.05;;;;;;;14.2;100;95633.01;;;;
2021/08/23 00:31:14;;;;;;;5.15;4.05;;;;;;;14.2;100;95633.01;;;;
2021/08/23 00:32:14;;;;;;;5.15;4.05;;;;;;;14.2;100;95633.01;;;;
2021/08/23 00:33:16;;;;;;;5.15;4.05;;;;;;;14.2;100;95633.01;;;;
2021/08/23 00:34:17;;;;;;;5.15;4.05;;;;;;;14.2;100;95633.01;;;;
2021/08/23 00:35:18;;;;;;;5.15;4.05;;;;;;;14.2;100;95633.01;;;;
2021/08/23 00:36:18;;;;;;;5.15;4.05;;;;;;;14.2;100;95633.01;;;;
2021/08/23 00:37:19;;;;;;;5.15;4.05;;;;;;;14.2;100;95633.01;;;;
2021/08/23 00:38:19;;;;;;;5.15;4.05;;;;;;;14.2;100;95633.01;;;;
2021/08/23 00:39:20;;;;;;;5.15;4.05;;;;;;;14.2;100;95633.01;;;;
2021/08/23 00:40:20;;;;;;;5.85;4.349999;;;;;;;13.98;100;95630.24;;;;
2021/08/23 00:41:21;;;;;;;5.85;4.349999;;;;;;;13.98;100;95630.24;;;;
2021/08/23 00:42:22;;;;;;;5.85;4.349999;;;;;;;13.98;100;95630.24;;;;
2021/08/23 00:43:22;;;;;;;5.85;4.349999;;;;;;;13.98;100;95630.24;;;;
2021/08/23 00:44:23;;;;;;;5.85;4.349999;;;;;;;13.98;100;95630.24;;;;
2021/08/23 00:45:23;;;;;;;5.85;4.349999;;;;;;;13.98;100;95630.24;;;;
2021/08/23 00:46:24;;;;;;;5.85;4.349999;;;;;;;13.98;100;95630.24;;;;
2021/08/23 00:47:25;;;;;;;5.85;4.349999;;;;;;;13.98;100;95630.24;;;;
2021/08/23 00:48:25;;;;;;;5.85;4.349999;;;;;;;13.98;100;95630.24;;;;
2021/08/23 00:49:26;;;;;;;5.85;4.349999;;;;;;;13.98;100;95630.24;;;;
2021/08/23 00:50:28;;;;;;;6.4;4.5;;;;;;;13.83;100;95625.95;;;;
2021/08/23 00:51:29;;;;;;;6.4;4.5;;;;;;;13.83;100;95625.95;;;;
2021/08/23 00:52:30;;;;;;;6.4;4.5;;;;;;;13.83;100;95625.95;;;;
2021/08/23 00:53:30;;;;;;;6.4;4.5;;;;;;;13.83;100;95625.95;;;;
2021/08/23 00:54:31;;;;;;;6.4;4.5;;;;;;;13.83;100;95625.95;;;;
2021/08/23 00:55:32;;;;;;;6.4;4.5;;;;;;;13.83;100;95625.95;;;;
2021/08/23 00:56:32;;;;;;;6.4;4.5;;;;;;;13.83;100;95625.95;;;;
2021/08/23 00:57:33;;;;;;;6.4;4.5;;;;;;;13.83;100;95625.95;;;;
2021/08/23 00:58:34;;;;;;;6.4;4.5;;;;;;;13.83;100;95625.95;;;;
2021/08/23 00:59:35;;;;;;;6.4;4.5;;;;;;;13.83;100;95625.95;;;;
2021/08/23 01:00:41;;;;;;;6.4;4.5;;;;;;;13.83;100;95625.95;;;;
2021/08/23 01:01:45;;;;;;;5.05;4.3;;;;;;;13.95;100;95623.13;;;;
2021/08/23 01:02:53;;;;;;;5.05;4.3;;;;;;;13.95;100;95623.13;;;;
2021/08/23 01:04:00;;;;;;;5.05;4.3;;;;;;;13.95;100;95623.13;;;;
2021/08/23 01:05:05;;;;;;;5.05;4.3;;;;;;;13.95;100;95623.13;;;;
2021/08/23 01:06:12;;;;;;;5.05;4.3;;;;;;;13.95;100;95623.13;;;;
2021/08/23 01:07:13;;;;;;;5.05;4.3;;;;;;;13.95;100;95623.13;;;;
2021/08/23 01:08:16;;;;;;;5.05;4.3;;;;;;;13.95;100;95623.13;;;;
2021/08/23 01:09:28;;;;;;;5.05;4.3;;;;;;;13.95;100;95623.13;;;;
2021/08/23 01:10:32;;;;;;;5.05;4.3;;;;;;;13.95;100;95623.13;;;;
2021/08/23 01:11:37;;;;;;;5.05;4.3;;;;;;;13.95;100;95623.13;;;;
2021/08/23 01:12:46;;;;;;;5;4.3;;;;;;;13.91;100;95618.32;;;;
2021/08/23 01:13:47;;;;;;;5;4.3;;;;;;;13.91;100;95618.32;;;;
2021/08/23 01:14:50;;;;;;;5;4.3;;;;;;;13.91;100;95618.32;;;;
2021/08/23 01:15:50;;;;;;;5;4.3;;;;;;;13.91;100;95618.32;;;;
2021/08/23 01:16:52;;;;;;;5;4.3;;;;;;;13.91;100;95618.32;;;;
2021/08/23 01:17:53;;;;;;;5;4.3;;;;;;;13.91;100;95618.32;;;;
2021/08/23 01:18:56;;;;;;;5;4.3;;;;;;;13.91;100;95618.32;;;;
2021/08/23 01:19:56;;;;;;;5;4.3;;;;;;;13.91;100;95618.32;;;;
2021/08/23 01:21:02;;;;;;;5;4.3;;;;;;;13.91;100;95618.32;;;;
2021/08/23 01:22:05;;;;;;;5;4.3;;;;;;;13.91;100;95618.32;;;;
2021/08/23 01:23:06;;;;;;;5.2;4.1;;;;;;;13.74;100;95619.82;;;;
2021/08/23 01:24:10;;;;;;;5.2;4.1;;;;;;;13.74;100;95619.82;;;;
2021/08/23 01:25:11;;;;;;;5.2;4.1;;;;;;;13.74;100;95619.82;;;;
2021/08/23 01:26:16;;;;;;;5.2;4.1;;;;;;;13.74;100;95619.82;;;;
2021/08/23 01:27:24;;;;;;;5.2;4.1;;;;;;;13.74;100;95619.82;;;;
2021/08/23 01:28:26;;;;;;;5.2;4.1;;;;;;;13.74;100;95619.82;;;;
2021/08/23 01:29:41;;;;;;;5.2;4.1;;;;;;;13.74;100;95619.82;;;;
2021/08/23 01:30:50;;;;;;;5.2;4.1;;;;;;;13.74;100;95619.82;;;;
2021/08/23 01:31:58;;;;;;;5.2;4.1;;;;;;;13.74;100;95619.82;;;;
2021/08/23 01:33:08;;;;;;;5.9;4.55;;;;;;;13.74;100;95619.68;;;;
2021/08/23 01:34:08;;;;;;;5.9;4.55;;;;;;;13.74;100;95619.68;;;;
2021/08/23 01:35:09;;;;;;;5.9;4.55;;;;;;;13.74;100;95619.68;;;;
2021/08/23 01:36:10;;;;;;;5.9;4.55;;;;;;;13.74;100;95619.68;;;;
2021/08/23 01:37:11;;;;;;;5.9;4.55;;;;;;;13.74;100;95619.68;;;;
2021/08/23 01:38:12;;;;;;;5.9;4.55;;;;;;;13.74;100;95619.68;;;;
2021/08/23 01:39:13;;;;;;;5.9;4.55;;;;;;;13.74;100;95619.68;;;;
2021/08/23 01:40:14;;;;;;;5.9;4.55;;;;;;;13.74;100;95619.68;;;;
2021/08/23 01:41:15;;;;;;;5.9;4.55;;;;;;;13.74;100;95619.68;;;;
2021/08/23 01:42:15;;;;;;;5.9;4.55;;;;;;;13.74;100;95619.68;;;;
2021/08/23 01:43:16;;;;;;;5.9;4.55;;;;;;;13.74;100;95619.68;;;;
2021/08/23 01:44:17;;;;;;;5;4.5;;;;;;;13.77;100;95615.14;;;;
2021/08/23 01:45:18;;;;;;;5;4.5;;;;;;;13.77;100;95615.14;;;;
2021/08/23 01:51:34;;;;;;;5;4.5;;;;;;;13.77;100;95615.14;;;;
2021/08/23 01:52:35;;;;;;;5;4.5;;;;;;;13.77;100;95615.14;;;;
2021/08/23 01:53:35;;;;;;;5;4.5;;;;;;;13.77;100;95615.14;;;;
2021/08/23 01:54:36;;;;;;;6.1;4.75;;;;;;;13.7;100;95615.84;;;;
2021/08/23 01:55:37;;;;;;;6.1;4.75;;;;;;;13.7;100;95615.84;;;;
2021/08/23 01:56:37;;;;;;;6.1;4.75;;;;;;;13.7;100;95615.84;;;;
2021/08/23 01:57:38;;;;;;;6.1;4.75;;;;;;;13.7;100;95615.84;;;;
2021/08/23 01:58:38;;;;;;;6.1;4.75;;;;;;;13.7;100;95615.84;;;;
2021/08/23 01:59:39;;;;;;;6.1;4.75;;;;;;;13.7;100;95615.84;;;;
2021/08/23 02:00:39;;;;;;;6.1;4.75;;;;;;;13.7;100;95615.84;;;;
2021/08/23 02:01:40;;;;;;;6.1;4.75;;;;;;;13.7;100;95615.84;;;;
2021/08/23 02:02:40;;;;;;;6.1;4.75;;;;;;;13.7;100;95615.84;;;;
2021/08/23 02:03:41;;;;;;;6.1;4.75;;;;;;;13.7;100;95615.84;;;;
2021/08/23 02:04:41;;;;;;;6.1;4.75;;;;;;;13.7;100;95615.84;;;;
2021/08/23 02:05:42;;;;;;;6.45;4.7;;;;;;;13.62;100;95618.01;;;;
2021/08/23 02:06:42;;;;;;;6.45;4.7;;;;;;;13.62;100;95618.01;;;;
2021/08/23 02:07:43;;;;;;;6.45;4.7;;;;;;;13.62;100;95618.01;;;;
2021/08/23 02:08:43;;;;;;;6.45;4.7;;;;;;;13.62;100;95618.01;;;;
2021/08/23 02:09:44;;;;;;;6.45;4.7;;;;;;;13.62;100;95618.01;;;;
2021/08/23 02:10:44;;;;;;;6.45;4.7;;;;;;;13.62;100;95618.01;;;;
2021/08/23 02:11:45;;;;;;;6.45;4.7;;;;;;;13.62;100;95618.01;;;;
2021/08/23 02:12:45;;;;;;;6.45;4.7;;;;;;;13.62;100;95618.01;;;;
2021/08/23 02:13:47;;;;;;;6.45;4.7;;;;;;;13.62;100;95618.01;;;;
2021/08/23 02:14:47;;;;;;;6.45;4.7;;;;;;;13.62;100;95618.01;;;;
2021/08/23 02:15:47;;;;;;;6.549999;4.9;;;;;;;13.67;100;95617.81;;;;
2021/08/23 02:16:48;;;;;;;6.549999;4.9;;;;;;;13.67;100;95617.81;;;;
2021/08/23 02:17:48;;;;;;;6.549999;4.9;;;;;;;13.67;100;95617.81;;;;
2021/08/23 02:18:49;;;;;;;6.549999;4.9;;;;;;;13.67;100;95617.81;;;;
2021/08/23 02:19:49;;;;;;;6.549999;4.9;;;;;;;13.67;100;95617.81;;;;
2021/08/23 02:20:50;;;;;;;6.549999;4.9;;;;;;;13.67;100;95617.81;;;;
2021/08/23 02:21:51;;;;;;;6.549999;4.9;;;;;;;13.67;100;95617.81;;;;
2021/08/23 02:22:53;;;;;;;6.549999;4.9;;;;;;;13.67;100;95617.81;;;;
2021/08/23 02:23:54;;;;;;;6.549999;4.9;;;;;;;13.67;100;95617.81;;;;
2021/08/23 02:24:54;;;;;;;6.549999;4.9;;;;;;;13.67;100;95617.81;;;;
2021/08/23 02:25:55;;;;;;;6.549999;4.9;;;;;;;13.67;100;95617.81;;;;
2021/08/23 02:26:56;;;;;;;5.9;4.25;;;;;;;13.75;100;95621.87;;;;
2021/08/23 02:27:57;;;;;;;5.9;4.25;;;;;;;13.75;100;95621.87;;;;
2021/08/23 02:28:58;;;;;;;5.9;4.25;;;;;;;13.75;100;95621.87;;;;
2021/08/23 02:29:58;;;;;;;5.9;4.25;;;;;;;13.75;100;95621.87;;;;
2021/08/23 02:30:59;;;;;;;5.9;4.25;;;;;;;13.75;100;95621.87;;;;
2021/08/23 02:31:59;;;;;;;5.9;4.25;;;;;;;13.75;100;95621.87;;;;
2021/08/23 02:33:00;;;;;;;5.9;4.25;;;;;;;13.75;100;95621.87;;;;
2021/08/23 02:34:00;;;;;;;5.9;4.25;;;;;;;13.75;100;95621.87;;;;
2021/08/23 02:35:01;;;;;;;5.9;4.25;;;;;;;13.75;100;95621.87;;;;
2021/08/23 02:36:01;;;;;;;5.9;4.25;;;;;;;13.75;100;95621.87;;;;
2021/08/23 02:37:02;;;;;;;5.9;4.25;;;;;;;13.75;100;95621.87;;;;
2021/08/23 02:38:03;;;;;;;4.6;4.15;;;;;;;13.72;100;95621.95;;;;
2021/08/23 02:39:05;;;;;;;4.6;4.15;;;;;;;13.72;100;95621.95;;;;
2021/08/23 02:40:05;;;;;;;4.6;4.15;;;;;;;13.72;100;95621.95;;;;
2021/08/23 02:41:07;;;;;;;4.6;4.15;;;;;;;13.72;100;95621.95;;;;
2021/08/23 02:42:07;;;;;;;4.6;4.15;;;;;;;13.72;100;95621.95;;;;
2021/08/23 02:43:08;;;;;;;4.6;4.15;;;;;;;13.72;100;95621.95;;;;
2021/08/23 02:44:09;;;;;;;4.6;4.15;;;;;;;13.72;100;95621.95;;;;
2021/08/23 02:45:09;;;;;;;4.6;4.15;;;;;;;13.72;100;95621.95;;;;
2021/08/23 02:46:11;;;;;;;4.6;4.15;;;;;;;13.72;100;95621.95;;;;
2021/08/23 02:47:11;;;;;;;4.6;4.15;;;;;;;13.72;100;95621.95;;;;
2021/08/23 02:48:12;;;;;;;4.6;4.15;;;;;;;13.72;100;95621.95;;;;
2021/08/23 02:49:12;;;;;;;4.6;4.15;;;;;;;13.72;100;95621.95;;;;
2021/08/23 02:50:13;;;;;;;4.6;4.15;;;;;;;13.72;100;95621.95;;;;
2021/08/23 02:51:14;;;;;;;4.6;4.15;;;;;;;13.72;100;95621.95;;;;
2021/08/23 02:52:14;;;;;;;4.6;4.15;;;;;;;13.72;100;95621.95;;;;
2021/08/23 02:53:15;;;;;;;4.6;4.15;;;;;;;13.72;100;95621.95;;;;
2021/08/23 02:54:16;;;;;;;4.6;4.15;;;;;;;13.72;100;95621.95;;;;
2021/08/23 02:55:16;;;;;;;4.6;4.15;;;;;;;13.72;100;95621.95;;;;
2021/08/23 02:56:17;;;;;;;4.6;4.15;;;;;;;13.72;100;95621.95;;;;
2021/08/23 02:57:17;;;;;;;4.6;4.15;;;;;;;13.72;100;95621.95;;;;
2021/08/23 02:58:18;;;;;;;4.6;4.15;;;;;;;13.72;100;95621.95;;;;
2021/08/23 02:59:18;;;;;;;6;4.55;;;;;;;13.44;100;95612.96;;;;
2021/08/23 03:00:19;;;;;;;6;4.55;;;;;;;13.44;100;95612.96;;;;
2021/08/23 03:01:19;;;;;;;6;4.55;;;;;;;13.44;100;95612.96;;;;
2021/08/23 03:02:20;;;;;;;6;4.55;;;;;;;13.44;100;95612.96;;;;
2021/08/23 03:03:20;;;;;;;6;4.55;;;;;;;13.44;100;95612.96;;;;
2021/08/23 03:04:21;;;;;;;6;4.55;;;;;;;13.44;100;95612.96;;;;
2021/08/23 03:05:23;;;;;;;6;4.55;;;;;;;13.44;100;95612.96;;;;
2021/08/23 03:06:23;;;;;;;6;4.55;;;;;;;13.44;100;95612.96;;;;
2021/08/23 03:07:24;;;;;;;6;4.55;;;;;;;13.44;100;95612.96;;;;
2021/08/23 03:08:24;;;;;;;6;4.55;;;;;;;13.44;100;95612.96;;;;
2021/08/23 03:09:25;;;;;;;6.9;4.4;;;;;;;13.36;100;95616.06;;;;
2021/08/23 03:10:25;;;;;;;6.9;4.4;;;;;;;13.36;100;95616.06;;;;
2021/08/23 03:11:26;;;;;;;6.9;4.4;;;;;;;13.36;100;95616.06;;;;
2021/08/23 03:12:27;;;;;;;6.9;4.4;;;;;;;13.36;100;95616.06;;;;
2021/08/23 03:13:27;;;;;;;6.9;4.4;;;;;;;13.36;100;95616.06;;;;
2021/08/23 03:14:28;;;;;;;6.9;4.4;;;;;;;13.36;100;95616.06;;;;
2021/08/23 03:15:28;;;;;;;6.9;4.4;;;;;;;13.36;100;95616.06;;;;
2021/08/23 03:16:29;;;;;;;6.9;4.4;;;;;;;13.36;100;95616.06;;;;
2021/08/23 03:17:30;;;;;;;6.9;4.4;;;;;;;13.36;100;95616.06;;;;
2021/08/23 03:18:30;;;;;;;6.9;4.4;;;;;;;13.36;100;95616.06;;;;
2021/08/23 03:19:31;;;;;;;6.9;4.4;;;;;;;13.36;100;95616.06;;;;
2021/08/23 03:20:32;;;;;;;6;4.35;;;;;;;13.32;100;95616.14;;;;
2021/08/23 03:21:32;;;;;;;6;4.35;;;;;;;13.32;100;95616.14;;;;
2021/08/23 03:22:33;;;;;;;6;4.35;;;;;;;13.32;100;95616.14;;;;
2021/08/23 03:23:33;;;;;;;6;4.35;;;;;;;13.32;100;95616.14;;;;
2021/08/23 03:24:34;;;;;;;6;4.35;;;;;;;13.32;100;95616.14;;;;
2021/08/23 03:25:34;;;;;;;6;4.35;;;;;;;13.32;100;95616.14;;;;
2021/08/23 03:26:35;;;;;;;6;4.35;;;;;;;13.32;100;95616.14;;;;
2021/08/23 03:27:35;;;;;;;6;4.35;;;;;;;13.32;100;95616.14;;;;
2021/08/23 03:28:36;;;;;;;6;4.35;;;;;;;13.32;100;95616.14;;;;
2021/08/23 03:29:37;;;;;;;6;4.35;;;;;;;13.32;100;95616.14;;;;
2021/08/23 03:30:37;;;;;;;5.05;4.5;;;;;;;13.34;100;95607.23;;;;
2021/08/23 03:31:38;;;;;;;5.05;4.5;;;;;;;13.34;100;95607.23;;;;
2021/08/23 03:32:39;;;;;;;5.05;4.5;;;;;;;13.34;100;95607.23;;;;
2021/08/23 03:33:39;;;;;;;5.05;4.5;;;;;;;13.34;100;95607.23;;;;
2021/08/23 03:34:40;;;;;;;5.05;4.5;;;;;;;13.34;100;95607.23;;;;
2021/08/23 03:35:40;;;;;;;5.05;4.5;;;;;;;13.34;100;95607.23;;;;
2021/08/23 03:36:41;;;;;;;5.05;4.5;;;;;;;13.34;100;95607.23;;;;
2021/08/23 03:37:43;;;;;;;5.05;4.5;;;;;;;13.34;100;95607.23;;;;
2021/08/23 03:38:47;;;;;;;5.05;4.5;;;;;;;13.34;100;95607.23;;;;
2021/08/23 03:39:47;;;;;;;5.05;4.5;;;;;;;13.34;100;95607.23;;;;
2021/08/23 03:40:48;;;;;;;5.05;4.5;;;;;;;13.34;100;95607.23;;;;
2021/08/23 03:41:49;;;;;;;7;4.65;;;;;;;13.28;100;95613.2;;;;
2021/08/23 03:42:49;;;;;;;7;4.65;;;;;;;13.28;100;95613.2;;;;
2021/08/23 03:43:50;;;;;;;7;4.65;;;;;;;13.28;100;95613.2;;;;
2021/08/23 03:44:51;;;;;;;7;4.65;;;;;;;13.28;100;95613.2;;;;
2021/08/23 03:45:51;;;;;;;7;4.65;;;;;;;13.28;100;95613.2;;;;
2021/08/23 03:46:52;;;;;;;7;4.65;;;;;;;13.28;100;95613.2;;;;
2021/08/23 03:47:52;;;;;;;7;4.65;;;;;;;13.28;100;95613.2;;;;
2021/08/23 03:48:53;;;;;;;7;4.65;;;;;;;13.28;100;95613.2;;;;
2021/08/23 03:49:53;;;;;;;7;4.65;;;;;;;13.28;100;95613.2;;;;
2021/08/23 03:50:54;;;;;;;7;4.65;;;;;;;13.28;100;95613.2;;;;
2021/08/23 03:51:55;;;;;;;5.699999;4.900001;;;;;;;13.22;100;95625.44;;;;
2021/08/23 03:52:55;;;;;;;5.699999;4.900001;;;;;;;13.22;100;95625.44;;;;
2021/08/23 03:53:56;;;;;;;5.699999;4.900001;;;;;;;13.22;100;95625.44;;;;
2021/08/23 03:54:57;;;;;;;5.699999;4.900001;;;;;;;13.22;100;95625.44;;;;
2021/08/23 03:55:57;;;;;;;5.699999;4.900001;;;;;;;13.22;100;95625.44;;;;
2021/08/23 03:56:58;;;;;;;5.699999;4.900001;;;;;;;13.22;100;95625.44;;;;
2021/08/23 03:57:58;;;;;;;5.699999;4.900001;;;;;;;13.22;100;95625.44;;;;
2021/08/23 03:58:59;;;;;;;5.699999;4.900001;;;;;;;13.22;100;95625.44;;;;
2021/08/23 03:59:59;;;;;;;5.699999;4.900001;;;;;;;13.22;100;95625.44;;;;
2021/08/23 04:01:00;;;;;;;5.699999;4.900001;;;;;;;13.22;100;95625.44;;;;
2021/08/23 04:02:01;;;;;;;5.699999;4.900001;;;;;;;13.22;100;95625.44;;;;
2021/08/23 04:03:02;;;;;;;8.600001;5.15;;;;;;;13.18;100;95631.61;;;;
2021/08/23 04:04:02;;;;;;;8.600001;5.15;;;;;;;13.18;100;95631.61;;;;
2021/08/23 04:05:03;;;;;;;8.600001;5.15;;;;;;;13.18;100;95631.61;;;;
2021/08/23 04:06:04;;;;;;;8.600001;5.15;;;;;;;13.18;100;95631.61;;;;
2021/08/23 04:07:09;;;;;;;8.600001;5.15;;;;;;;13.18;100;95631.61;;;;
2021/08/23 04:08:09;;;;;;;8.600001;5.15;;;;;;;13.18;100;95631.61;;;;
2021/08/23 04:09:10;;;;;;;8.600001;5.15;;;;;;;13.18;100;95631.61;;;;
2021/08/23 04:10:11;;;;;;;8.600001;5.15;;;;;;;13.18;100;95631.61;;;;
2021/08/23 04:11:12;;;;;;;8.600001;5.15;;;;;;;13.18;100;95631.61;;;;
2021/08/23 04:12:14;;;;;;;8.600001;5.15;;;;;;;13.18;100;95631.61;;;;
2021/08/23 04:13:15;;;;;;;6.05;5.05;;;;;;;13.11;100;95624.57;;;;
2021/08/23 04:14:15;;;;;;;6.05;5.05;;;;;;;13.11;100;95624.57;;;;
2021/08/23 04:15:16;;;;;;;6.05;5.05;;;;;;;13.11;100;95624.57;;;;
2021/08/23 04:16:18;;;;;;;6.05;5.05;;;;;;;13.11;100;95624.57;;;;
2021/08/23 04:17:18;;;;;;;6.05;5.05;;;;;;;13.11;100;95624.57;;;;
2021/08/23 04:18:19;;;;;;;6.05;5.05;;;;;;;13.11;100;95624.57;;;;
2021/08/23 04:19:19;;;;;;;6.05;5.05;;;;;;;13.11;100;95624.57;;;;
2021/08/23 04:20:20;;;;;;;6.05;5.05;;;;;;;13.11;100;95624.57;;;;
2021/08/23 04:21:20;;;;;;;6.05;5.05;;;;;;;13.11;100;95624.57;;;;
2021/08/23 04:22:21;;;;;;;6.05;5.05;;;;;;;13.11;100;95624.57;;;;
2021/08/23 04:23:21;;;;;;;6.05;5.05;;;;;;;13.11;100;95624.57;;;;
2021/08/23 04:24:22;;;;;;;7.3;5.5;;;;;;;13.13;100;95626.09;;;;
2021/08/23 04:25:22;;;;;;;7.3;5.5;;;;;;;13.13;100;95626.09;;;;
2021/08/23 04:26:23;;;;;;;7.3;5.5;;;;;;;13.13;100;95626.09;;;;
2021/08/23 04:27:23;;;;;;;7.3;5.5;;;;;;;13.13;100;95626.09;;;;
2021/08/23 04:28:24;;;;;;;7.3;5.5;;;;;;;13.13;100;95626.09;;;;
2021/08/23 04:29:25;;;;;;;7.3;5.5;;;;;;;13.13;100;95626.09;;;;
2021/08/23 04:30:25;;;;;;;7.3;5.5;;;;;;;13.13;100;95626.09;;;;
2021/08/23 04:31:28;;;;;;;7.3;5.5;;;;;;;13.13;100;95626.09;;;;
2021/08/23 04:32:28;;;;;;;7.3;5.5;;;;;;;13.13;100;95626.09;;;;
2021/08/23 04:33:29;;;;;;;7.3;5.5;;;;;;;13.13;100;95626.09;;;;
2021/08/23 04:34:30;;;;;;;7.35;5.45;;;;;;;13.26;100;95613.04;;;;
2021/08/23 04:35:30;;;;;;;7.35;5.45;;;;;;;13.26;100;95613.04;;;;
2021/08/23 04:36:31;;;;;;;7.35;5.45;;;;;;;13.26;100;95613.04;;;;
2021/08/23 04:37:31;;;;;;;7.35;5.45;;;;;;;13.26;100;95613.04;;;;
2021/08/23 04:38:32;;;;;;;7.35;5.45;;;;;;;13.26;100;95613.04;;;;
2021/08/23 04:39:32;;;;;;;7.35;5.45;;;;;;;13.26;100;95613.04;;;;
2021/08/23 04:40:34;;;;;;;7.35;5.45;;;;;;;13.26;100;95613.04;;;;
2021/08/23 04:41:35;;;;;;;7.35;5.45;;;;;;;13.26;100;95613.04;;;;
2021/08/23 04:42:36;;;;;;;7.35;5.45;;;;;;;13.26;100;95613.04;;;;
2021/08/23 04:43:36;;;;;;;7.35;5.45;;;;;;;13.26;100;95613.04;;;;
2021/08/23 04:44:37;;;;;;;7.35;5.45;;;;;;;13.26;100;95613.04;;;;
2021/08/23 04:45:37;;;;;;;7.25;5.45;;;;;;;13.41;100;95611.13;;;;
2021/08/23 04:46:38;;;;;;;7.25;5.45;;;;;;;13.41;100;95611.13;;;;
2021/08/23 04:47:39;;;;;;;7.25;5.45;;;;;;;13.41;100;95611.13;;;;
2021/08/23 04:48:39;;;;;;;7.25;5.45;;;;;;;13.41;100;95611.13;;;;
2021/08/23 04:49:40;;;;;;;7.25;5.45;;;;;;;13.41;100;95611.13;;;;
2021/08/23 04:50:40;;;;;;;7.25;5.45;;;;;;;13.41;100;95611.13;;;;
2021/08/23 04:51:40;;;;;;;7.25;5.45;;;;;;;13.41;100;95611.13;;;;
2021/08/23 04:52:41;;;;;;;7.25;5.45;;;;;;;13.41;100;95611.13;;;;
2021/08/23 04:53:42;;;;;;;7.25;5.45;;;;;;;13.41;100;95611.13;;;;
2021/08/23 04:54:42;;;;;;;7.25;5.45;;;;;;;13.41;100;95611.13;;;;
2021/08/23 04:55:43;;;;;;;7.25;5.45;;;;;;;13.41;100;95611.13;;;;
2021/08/23 04:56:43;;;;;;;6.7;4.55;;;;;;;13.58;100;95623.77;;;;
2021/08/23 04:57:46;;;;;;;6.7;4.55;;;;;;;13.58;100;95623.77;;;;
2021/08/23 04:58:47;;;;;;;6.7;4.55;;;;;;;13.58;100;95623.77;;;;
2021/08/23 04:59:47;;;;;;;6.7;4.55;;;;;;;13.58;100;95623.77;;;;
2021/08/23 05:00:48;;;;;;;6.7;4.55;;;;;;;13.58;100;95623.77;;;;
2021/08/23 05:01:49;;;;;;;6.7;4.55;;;;;;;13.58;100;95623.77;;;;
2021/08/23 05:02:49;;;;;;;6.7;4.55;;;;;;;13.58;100;95623.77;;;;
2021/08/23 05:03:50;;;;;;;6.7;4.55;;;;;;;13.58;100;95623.77;;;;
2021/08/23 05:04:50;;;;;;;6.7;4.55;;;;;;;13.58;100;95623.77;;;;
2021/08/23 05:05:51;;;;;;;6.7;4.55;;;;;;;13.58;100;95623.77;;;;
2021/08/23 05:06:51;;;;;;;7.05;4.9;;;;;;;13.72;100;95622.79;;;;
2021/08/23 05:07:52;;;;;;;7.05;4.9;;;;;;;13.72;100;95622.79;;;;
2021/08/23 05:08:54;;;;;;;7.05;4.9;;;;;;;13.72;100;95622.79;;;;
2021/08/23 05:09:54;;;;;;;7.05;4.9;;;;;;;13.72;100;95622.79;;;;
2021/08/23 05:10:55;;;;;;;7.05;4.9;;;;;;;13.72;100;95622.79;;;;
2021/08/23 05:11:55;;;;;;;7.05;4.9;;;;;;;13.72;100;95622.79;;;;
2021/08/23 05:12:56;;;;;;;7.05;4.9;;;;;;;13.72;100;95622.79;;;;
2021/08/23 05:13:56;;;;;;;7.05;4.9;;;;;;;13.72;100;95622.79;;;;
2021/08/23 05:14:57;;;;;;;7.05;4.9;;;;;;;13.72;100;95622.79;;;;
2021/08/23 05:15:57;;;;;;;7.05;4.9;;;;;;;13.72;100;95622.79;;;;
2021/08/23 05:16:58;;;;;;;7.05;4.9;;;;;;;13.72;100;95622.79;;;;
2021/08/23 05:17:58;;;;;;;6.699999;4.400001;;;;;;;13.87;100;95625.34;;;;
2021/08/23 05:18:59;;;;;;;6.699999;4.400001;;;;;;;13.87;100;95625.34;;;;
2021/08/23 05:20:00;;;;;;;6.699999;4.400001;;;;;;;13.87;100;95625.34;;;;
2021/08/23 05:21:03;;;;;;;6.699999;4.400001;;;;;;;13.87;100;95625.34;;;;
2021/08/23 05:22:04;;;;;;;6.699999;4.400001;;;;;;;13.87;100;95625.34;;;;
2021/08/23 05:23:04;;;;;;;6.699999;4.400001;;;;;;;13.87;100;95625.34;;;;
2021/08/23 05:24:05;;;;;;;6.699999;4.400001;;;;;;;13.87;100;95625.34;;;;
2021/08/23 05:25:06;;;;;;;6.699999;4.400001;;;;;;;13.87;100;95625.34;;;;
2021/08/23 05:26:07;;;;;;;6.699999;4.400001;;;;;;;13.87;100;95625.34;;;;
2021/08/23 05:27:08;;;;;;;6.699999;4.400001;;;;;;;13.87;100;95625.34;;;;
2021/08/23 05:28:09;;;;;;;4.9;4.35;;;;;;;14.07;100;95626.56;;;;
2021/08/23 05:29:10;;;;;;;4.9;4.35;;;;;;;14.07;100;95626.56;;;;
2021/08/23 05:30:10;;;;;;;4.9;4.35;;;;;;;14.07;100;95626.56;;;;
2021/08/23 05:31:11;;;;;;;4.9;4.35;;;;;;;14.07;100;95626.56;;;;
2021/08/23 05:32:16;;;;;;;4.9;4.35;;;;;;;14.07;100;95626.56;;;;
2021/08/23 05:33:16;;;;;;;4.9;4.35;;;;;;;14.07;100;95626.56;;;;
2021/08/23 05:34:17;;;;;;;4.9;4.35;;;;;;;14.07;100;95626.56;;;;
2021/08/23 05:35:18;;;;;;;4.9;4.35;;;;;;;14.07;100;95626.56;;;;
2021/08/23 05:36:18;;;;;;;4.9;4.35;;;;;;;14.07;100;95626.56;;;;
2021/08/23 05:37:20;;;;;;;4.9;4.35;;;;;;;14.07;100;95626.56;;;;
2021/08/23 05:38:21;;;;;;;4.9;4.35;;;;;;;14.07;100;95626.56;;;;
2021/08/23 05:39:21;;;;;;;5.65;4.050001;;;;;;;14.4;100;95637.41;;;;
2021/08/23 05:40:23;;;;;;;5.65;4.050001;;;;;;;14.4;100;95637.41;;;;
2021/08/23 05:41:24;;;;;;;5.65;4.050001;;;;;;;14.4;100;95637.41;;;;
2021/08/23 05:42:25;;;;;;;5.65;4.050001;;;;;;;14.4;100;95637.41;;;;
2021/08/23 05:43:25;;;;;;;5.65;4.050001;;;;;;;14.4;100;95637.41;;;;
2021/08/23 05:44:26;;;;;;;5.65;4.050001;;;;;;;14.4;100;95637.41;;;;
2021/08/23 05:45:26;;;;;;;5.65;4.050001;;;;;;;14.4;100;95637.41;;;;
2021/08/23 05:46:27;;;;;;;5.65;4.050001;;;;;;;14.4;100;95637.41;;;;
2021/08/23 05:47:27;;;;;;;5.65;4.050001;;;;;;;14.4;100;95637.41;;;;
2021/08/23 05:48:29;;;;;;;5.65;4.050001;;;;;;;14.4;100;95637.41;;;;
2021/08/23 05:49:30;;;;;;;6.25;3.85;;;;;;;14.81;100;95646.37;;;;
2021/08/23 05:50:31;;;;;;;6.25;3.85;;;;;;;14.81;100;95646.37;;;;
2021/08/23 05:51:31;;;;;;;6.25;3.85;;;;;;;14.81;100;95646.37;;;;
2021/08/23 05:52:32;;;;;;;6.25;3.85;;;;;;;14.81;100;95646.37;;;;
2021/08/23 05:53:32;;;;;;;6.25;3.85;;;;;;;14.81;100;95646.37;;;;
2021/08/23 05:54:33;;;;;;;6.25;3.85;;;;;;;14.81;100;95646.37;;;;
2021/08/23 05:55:33;;;;;;;6.25;3.85;;;;;;;14.81;100;95646.37;;;;
2021/08/23 05:56:34;;;;;;;6.25;3.85;;;;;;;14.81;100;95646.37;;;;
2021/08/23 05:57:34;;;;;;;6.25;3.85;;;;;;;14.81;100;95646.37;;;;
2021/08/23 05:58:35;;;;;;;6.25;3.85;;;;;;;14.81;100;95646.37;;;;
2021/08/23 05:59:36;;;;;;;6.25;3.85;;;;;;;14.81;100;95646.37;;;;
2021/08/23 06:00:36;;;;;;;6.1;3.85;;;;;;;15.36;100;95644.84;;;;
2021/08/23 06:01:37;;;;;;;6.1;3.85;;;;;;;15.36;100;95644.84;;;;
2021/08/23 06:02:37;;;;;;;6.1;3.85;;;;;;;15.36;100;95644.84;;;;
2021/08/23 06:03:38;;;;;;;6.1;3.85;;;;;;;15.36;100;95644.84;;;;
2021/08/23 06:04:38;;;;;;;6.1;3.85;;;;;;;15.36;100;95644.84;;;;
2021/08/23 06:05:39;;;;;;;6.1;3.85;;;;;;;15.36;100;95644.84;;;;
2021/08/23 06:06:39;;;;;;;6.1;3.85;;;;;;;15.36;100;95644.84;;;;
2021/08/23 06:07:40;;;;;;;6.1;3.85;;;;;;;15.36;100;95644.84;;;;
2021/08/23 06:08:41;;;;;;;6.1;3.85;;;;;;;15.36;100;95644.84;;;;
2021/08/23 06:09:42;;;;;;;6.1;3.85;;;;;;;15.36;100;95644.84;;;;
2021/08/23 06:10:43;;;;;;;4.8;3.7;;;;;;;15.88;100;95633.65;;;;
2021/08/23 06:11:45;;;;;;;4.8;3.7;;;;;;;15.88;100;95633.65;;;;
2021/08/23 06:12:46;;;;;;;4.8;3.7;;;;;;;15.88;100;95633.65;;;;
2021/08/23 06:13:48;;;;;;;4.8;3.7;;;;;;;15.88;100;95633.65;;;;
2021/08/23 06:14:48;;;;;;;4.8;3.7;;;;;;;15.88;100;95633.65;;;;
2021/08/23 06:15:49;;;;;;;4.8;3.7;;;;;;;15.88;100;95633.65;;;;
2021/08/23 06:16:49;;;;;;;4.8;3.7;;;;;;;15.88;100;95633.65;;;;
2021/08/23 06:17:50;;;;;;;4.8;3.7;;;;;;;15.88;100;95633.65;;;;